Time;durP1;ratioP1;P1;durP2;ratioP2;P2;SDS_P1;SDS_P2;PMS_P1;PMS_P2;Temp;Humidity;BMP_temperature;BMP_pressure;BME280_temperature;BME280_humidity;BME280_pressure;Samples;Min_cycle;Max_cycle;Signal;HPM_P1;HPM_P2
2022/12/10 00:02:07;;;;;;;1999.90;999.90;;;0.70;99.90;;;;;;5072565;28;20998;-69
2022/12/10 00:04:33;;;;;;;1999.90;999.90;;;0.70;99.90;;;;;;5069541;28;20469;-67
2022/12/10 00:07:00;;;;;;;1999.90;999.90;;;0.70;99.90;;;;;;5067448;28;20481;-68
2022/12/10 00:09:28;;;;;;;1999.90;999.90;;;0.70;99.90;;;;;;5068731;28;20453;-69
2022/12/10 00:11:55;;;;;;;1999.90;999.90;;;1.00;99.90;;;;;;5072705;28;20468;-70
2022/12/10 00:14:22;;;;;;;1999.90;999.90;;;0.60;99.90;;;;;;5073477;28;20461;-69
2022/12/10 00:16:49;;;;;;;1999.90;999.90;;;0.60;99.90;;;;;;5075945;28;21155;-68
2022/12/10 00:19:16;;;;;;;1999.90;999.90;;;0.60;99.90;;;;;;5076981;28;20469;-68
2022/12/10 00:21:44;;;;;;;1999.90;999.90;;;0.60;99.90;;;;;;5080406;28;20482;-70
2022/12/10 00:24:11;;;;;;;1999.90;999.90;;;0.60;99.90;;;;;;5083123;28;20468;-68
2022/12/10 00:26:40;;;;;;;1999.90;999.90;;;0.60;99.90;;;;;;5079002;28;20469;-69
2022/12/10 00:29:08;;;;;;;1999.90;999.90;;;0.60;99.90;;;;;;5076187;28;20810;-68
2022/12/10 00:31:37;;;;;;;1999.90;999.90;;;0.60;99.90;;;;;;5073882;28;20461;-68
2022/12/10 00:34:08;;;;;;;1999.90;999.90;;;0.50;99.90;;;;;;5073327;28;20844;-68
2022/12/10 00:36:37;;;;;;;1999.90;999.90;;;0.50;99.90;;;;;;5071772;28;20457;-67
2022/12/10 00:39:05;;;;;;;1999.90;999.90;;;0.50;99.90;;;;;;5070092;28;20653;-68
2022/12/10 00:41:32;;;;;;;1999.90;999.90;;;0.50;99.90;;;;;;5072313;28;20481;-68
2022/12/10 00:44:00;;;;;;;1999.90;999.90;;;0.50;99.90;;;;;;5072535;28;20468;-69
2022/12/10 00:46:28;;;;;;;1999.90;999.90;;;0.40;99.90;;;;;;5067919;28;20465;-68
2022/12/10 00:48:55;;;;;;;1999.90;999.90;;;0.40;99.90;;;;;;5069653;28;20488;-68
2022/12/10 00:51:23;;;;;;;1999.90;999.90;;;0.40;99.90;;;;;;5069976;28;20461;-69
2022/12/10 00:53:51;;;;;;;1999.90;999.90;;;0.40;99.90;;;;;;5071399;28;20468;-68
2022/12/10 00:56:20;;;;;;;1999.90;999.90;;;0.30;99.90;;;;;;5068810;28;20465;-68
2022/12/10 00:58:48;;;;;;;1999.90;999.90;;;0.30;99.90;;;;;;5075820;28;20484;-68
2022/12/10 01:01:19;;;;;;;1999.90;999.90;;;0.40;99.90;;;;;;5072820;28;20481;-67
2022/12/10 01:03:48;;;;;;;1999.90;999.90;;;0.40;99.90;;;;;;5074006;28;21047;-69
2022/12/10 01:06:17;;;;;;;1999.90;999.90;;;0.40;99.90;;;;;;5073893;28;20454;-68
2022/12/10 01:08:45;;;;;;;1999.90;999.90;;;0.40;99.90;;;;;;5075494;28;20476;-68
2022/12/10 01:11:13;;;;;;;1999.90;999.90;;;0.40;99.90;;;;;;5074168;28;20468;-68
2022/12/10 01:13:42;;;;;;;1999.90;999.90;;;0.40;99.90;;;;;;5072397;28;20831;-68
2022/12/10 01:16:11;;;;;;;1999.90;999.90;;;0.40;99.90;;;;;;5073114;28;20979;-68
2022/12/10 01:18:39;;;;;;;1999.90;999.90;;;0.40;99.90;;;;;;5070916;28;20477;-68
2022/12/10 01:21:08;;;;;;;1999.90;999.90;;;0.40;99.90;;;;;;5072356;28;20477;-68
2022/12/10 01:23:37;;;;;;;1999.90;999.90;;;0.40;99.90;;;;;;5071605;28;20843;-68
2022/12/10 01:26:05;;;;;;;1999.90;999.90;;;0.40;99.90;;;;;;5072873;28;20461;-68
2022/12/10 01:28:33;;;;;;;1999.90;999.90;;;0.40;99.90;;;;;;5069983;28;20485;-66
2022/12/10 01:31:04;;;;;;;1999.90;999.90;;;0.40;99.90;;;;;;5095668;22;20473;-67
2022/12/10 01:33:32;;;;;;;1999.90;999.90;;;0.50;99.90;;;;;;5008626;28;20476;-70
2022/12/10 01:36:03;;;;;;;1999.90;999.90;;;0.50;99.90;;;;;;5011152;28;20464;-69
2022/12/10 01:38:29;;;;;;;1999.90;999.90;;;0.50;99.90;;;;;;5004138;28;20460;-70
2022/12/10 01:40:56;;;;;;;1999.90;999.90;;;0.40;99.90;;;;;;5005751;28;20488;-70
2022/12/10 01:43:23;;;;;;;1999.90;999.90;;;0.40;99.90;;;;;;5010467;28;20467;-69
2022/12/10 01:45:50;;;;;;;1999.90;999.90;;;0.40;99.90;;;;;;5009083;28;20461;-71
2022/12/10 01:48:17;;;;;;;1999.90;999.90;;;0.40;99.90;;;;;;5011729;28;20460;-71
2022/12/10 01:50:43;;;;;;;1999.90;999.90;;;0.40;99.90;;;;;;5009422;28;20490;-70
2022/12/10 01:53:13;;;;;;;1999.90;999.90;;;0.40;99.90;;;;;;5009245;28;20499;-71
2022/12/10 01:55:44;;;;;;;1999.90;999.90;;;0.50;99.90;;;;;;5009271;28;20468;-68
2022/12/10 01:58:13;;;;;;;1999.90;999.90;;;0.50;99.90;;;;;;5009142;28;20486;-71
2022/12/10 02:00:46;;;;;;;1999.90;999.90;;;0.40;99.90;;;;;;5007979;28;20512;-71
2022/12/10 02:03:18;;;;;;;1999.90;999.90;;;0.50;99.90;;;;;;5008429;28;21058;-71
2022/12/10 02:05:52;;;;;;;1999.90;999.90;;;0.50;99.90;;;;;;5009449;28;20490;-70
2022/12/10 02:08:27;;;;;;;1999.90;999.90;;;0.40;99.90;;;;;;5009681;28;20842;-72
2022/12/10 02:11:04;;;;;;;1999.90;999.90;;;0.40;99.90;;;;;;5006915;28;20958;-70
2022/12/10 02:13:36;;;;;;;1999.90;999.90;;;0.40;99.90;;;;;;5008459;28;20842;-70
2022/12/10 02:16:08;;;;;;;1999.90;999.90;;;0.50;99.90;;;;;;5006368;28;20811;-70
2022/12/10 02:18:40;;;;;;;1999.90;999.90;;;0.40;99.90;;;;;;5009120;28;20460;-69
2022/12/10 02:21:13;;;;;;;1999.90;999.90;;;0.40;99.90;;;;;;5009690;28;20484;-70
2022/12/10 02:23:46;;;;;;;1999.90;999.90;;;0.40;99.90;;;;;;5007240;28;20456;-70
2022/12/10 02:26:18;;;;;;;1999.90;999.90;;;0.40;99.90;;;;;;5008183;28;20456;-71
2022/12/10 02:28:52;;;;;;;1999.90;999.90;;;0.40;99.90;;;;;;5007404;28;20464;-71
2022/12/10 02:31:24;;;;;;;1999.90;999.90;;;0.40;99.90;;;;;;5008034;28;20480;-71
2022/12/10 02:33:54;;;;;;;1999.90;999.90;;;0.40;99.90;;;;;;5007841;28;20457;-70
2022/12/10 02:36:24;;;;;;;1999.90;999.90;;;0.40;99.90;;;;;;5009941;28;20487;-70
2022/12/10 02:38:53;;;;;;;1999.90;999.90;;;0.40;99.90;;;;;;5009307;28;20469;-70
2022/12/10 02:41:27;;;;;;;1999.90;999.90;;;0.40;99.90;;;;;;5010073;28;20519;-70
2022/12/10 02:43:57;;;;;;;1999.90;999.90;;;0.30;99.90;;;;;;5004790;28;20468;-69
2022/12/10 02:46:28;;;;;;;1999.90;999.90;;;0.40;99.90;;;;;;5006911;28;20471;-68
2022/12/10 02:48:55;;;;;;;1999.90;999.90;;;0.40;99.90;;;;;;5007980;28;20460;-69
2022/12/10 02:51:22;;;;;;;1999.90;999.90;;;0.60;99.90;;;;;;5008086;28;20472;-68
2022/12/10 02:53:59;;;;;;;1999.90;999.90;;;0.50;99.90;;;;;;5007627;28;20456;-70
2022/12/10 02:56:32;;;;;;;1999.90;999.90;;;0.40;99.90;;;;;;5005247;28;20462;-69
2022/12/10 02:59:08;;;;;;;1999.90;999.90;;;0.40;99.90;;;;;;5007539;28;20464;-71
2022/12/10 03:01:44;;;;;;;1999.90;999.90;;;0.40;99.90;;;;;;5005973;28;20492;-70
2022/12/10 03:04:15;;;;;;;1999.90;999.90;;;0.40;99.90;;;;;;5006594;28;20452;-70
2022/12/10 03:06:47;;;;;;;1999.90;999.90;;;0.40;99.90;;;;;;5006494;28;20460;-70
2022/12/10 03:09:19;;;;;;;1999.90;999.90;;;0.40;99.90;;;;;;5007372;28;21105;-71
2022/12/10 03:11:47;;;;;;;1999.90;999.90;;;0.50;99.90;;;;;;5007969;28;20834;-70
2022/12/10 03:14:17;;;;;;;1999.90;999.90;;;0.50;99.90;;;;;;5007286;28;20472;-70
2022/12/10 03:16:51;;;;;;;1999.90;999.90;;;0.40;99.90;;;;;;5007106;28;20753;-71
2022/12/10 03:19:22;;;;;;;1999.90;999.90;;;0.40;99.90;;;;;;5008627;28;20526;-70
2022/12/10 03:21:52;;;;;;;1999.90;999.90;;;0.40;99.90;;;;;;5007472;28;20491;-71
2022/12/10 03:24:20;;;;;;;1999.90;999.90;;;0.40;99.90;;;;;;5009162;28;20472;-71
2022/12/10 03:26:51;;;;;;;1999.90;999.90;;;0.40;99.90;;;;;;5006794;28;20842;-71
2022/12/10 03:29:22;;;;;;;1999.90;999.90;;;0.40;99.90;;;;;;5007705;28;20467;-68
2022/12/10 03:31:53;;;;;;;1999.90;999.90;;;0.50;99.90;;;;;;5003487;28;20502;-70
2022/12/10 03:34:20;;;;;;;1999.90;999.90;;;0.50;99.90;;;;;;5009454;28;20455;-70
2022/12/10 03:36:49;;;;;;;1999.90;999.90;;;0.50;99.90;;;;;;5006710;28;20464;-70
2022/12/10 03:39:17;;;;;;;1999.90;999.90;;;0.50;99.90;;;;;;5004839;28;20468;-70
2022/12/10 03:41:44;;;;;;;1999.90;999.90;;;0.40;99.90;;;;;;5007970;28;20883;-70
2022/12/10 03:44:10;;;;;;;1999.90;999.90;;;0.50;99.90;;;;;;5009169;28;20467;-70
2022/12/10 03:46:37;;;;;;;1999.90;999.90;;;0.40;99.90;;;;;;5004683;28;20475;-70
2022/12/10 03:49:07;;;;;;;1999.90;999.90;;;0.50;99.90;;;;;;5006944;28;20460;-70
2022/12/10 03:51:33;;;;;;;1999.90;999.90;;;0.40;99.90;;;;;;5007938;28;20471;-70
2022/12/10 03:54:00;;;;;;;1999.90;999.90;;;0.40;99.90;;;;;;5008524;28;20463;-70
2022/12/10 03:56:27;;;;;;;1999.90;999.90;;;0.40;99.90;;;;;;5003077;28;20490;-71
2022/12/10 03:58:54;;;;;;;1999.90;999.90;;;0.40;99.90;;;;;;5005506;28;20469;-68
2022/12/10 04:01:20;;;;;;;1999.90;999.90;;;0.40;99.90;;;;;;5008196;28;20495;-67
2022/12/10 04:03:47;;;;;;;1999.90;999.90;;;0.40;99.90;;;;;;5007203;28;20469;-71
2022/12/10 04:06:17;;;;;;;1999.90;999.90;;;0.40;99.90;;;;;;5007168;28;20475;-70
2022/12/10 04:08:44;;;;;;;1999.90;999.90;;;0.40;99.90;;;;;;5007472;28;20460;-72
2022/12/10 04:11:12;;;;;;;1999.90;999.90;;;0.30;99.90;;;;;;5005045;28;20475;-70
2022/12/10 04:16:28;;;;;;;1999.90;999.90;;;0.40;99.90;;;;;;5006626;28;20459;-69
2022/12/10 04:18:56;;;;;;;1999.90;999.90;;;0.40;99.90;;;;;;5007757;28;20496;-69
2022/12/10 04:27:08;;;;;;;1999.90;999.90;;;0.40;99.90;;;;;;5007369;28;21019;-70
2022/12/10 04:29:35;;;;;;;1999.90;999.90;;;0.30;99.90;;;;;;5004325;28;20459;-70
2022/12/10 04:32:02;;;;;;;1999.90;999.90;;;0.30;99.90;;;;;;5006839;28;20502;-71
2022/12/10 04:34:29;;;;;;;1999.90;999.90;;;0.30;99.90;;;;;;5011115;28;20462;-69
2022/12/10 04:36:58;;;;;;;1999.90;999.90;;;0.30;99.90;;;;;;5010922;28;20468;-70
2022/12/10 04:39:26;;;;;;;1999.90;999.90;;;0.30;99.90;;;;;;5012783;28;20470;-69
2022/12/10 04:41:53;;;;;;;1999.90;999.90;;;0.30;99.90;;;;;;5010196;28;20504;-68
2022/12/10 04:44:20;;;;;;;1999.90;999.90;;;0.30;99.90;;;;;;5010683;28;20960;-71
2022/12/10 04:46:48;;;;;;;1999.90;999.90;;;0.30;99.90;;;;;;5008444;28;20948;-71
2022/12/10 04:49:17;;;;;;;1999.90;999.90;;;0.30;99.90;;;;;;5011257;28;20460;-70
2022/12/10 04:51:45;;;;;;;1999.90;999.90;;;0.20;99.90;;;;;;5010793;28;20480;-70
2022/12/10 04:54:14;;;;;;;1999.90;999.90;;;0.30;99.90;;;;;;5012212;28;20468;-70
2022/12/10 04:56:41;;;;;;;1999.90;999.90;;;0.30;99.90;;;;;;5009062;28;20483;-70
2022/12/10 04:59:09;;;;;;;1999.90;999.90;;;0.30;99.90;;;;;;5007941;28;20471;-70
2022/12/10 05:01:36;;;;;;;1999.90;999.90;;;0.30;99.90;;;;;;5009779;28;20487;-70
2022/12/10 05:04:04;;;;;;;1999.90;999.90;;;0.30;99.90;;;;;;5007558;28;20468;-70
2022/12/10 05:06:31;;;;;;;1999.90;999.90;;;0.30;99.90;;;;;;5010816;28;20956;-66
2022/12/10 05:08:58;;;;;;;1999.90;999.90;;;0.20;99.90;;;;;;5010753;28;20981;-71
2022/12/10 05:11:29;;;;;;;1999.90;999.90;;;0.30;99.90;;;;;;5012017;28;20567;-71
2022/12/10 05:13:56;;;;;;;1999.90;999.90;;;0.20;99.90;;;;;;5008627;28;20475;-68
2022/12/10 05:16:25;;;;;;;1999.90;999.90;;;0.30;99.90;;;;;;5010867;28;20455;-69
2022/12/10 05:18:53;;;;;;;1999.90;999.90;;;0.30;99.90;;;;;;5009699;28;20518;-74
2022/12/10 05:21:21;;;;;;;1999.90;999.90;;;0.20;99.90;;;;;;5009566;28;20503;-71
2022/12/10 05:23:50;;;;;;;1999.90;999.90;;;0.30;99.90;;;;;;5009564;28;20459;-71
2022/12/10 05:26:18;;;;;;;1999.90;999.90;;;0.30;99.90;;;;;;5010393;28;20459;-70
2022/12/10 05:28:48;;;;;;;1999.90;999.90;;;0.30;99.90;;;;;;5006745;28;20475;-70
2022/12/10 05:31:16;;;;;;;1999.90;999.90;;;0.30;99.90;;;;;;5010438;28;20502;-70
2022/12/10 05:33:43;;;;;;;1999.90;999.90;;;0.30;99.90;;;;;;5010791;28;20456;-70
2022/12/10 05:36:12;;;;;;;1999.90;999.90;;;0.30;99.90;;;;;;5009710;28;20466;-70
2022/12/10 05:38:40;;;;;;;1999.90;999.90;;;0.20;99.90;;;;;;5010537;28;20468;-70
2022/12/10 05:41:10;;;;;;;1999.90;999.90;;;0.10;99.90;;;;;;5009947;28;20460;-70
2022/12/10 05:43:37;;;;;;;1999.90;999.90;;;0.20;99.90;;;;;;5008632;28;20824;-69
2022/12/10 05:46:08;;;;;;;1999.90;999.90;;;0.20;99.90;;;;;;5010153;28;20465;-70
2022/12/10 05:48:35;;;;;;;1999.90;999.90;;;0.20;99.90;;;;;;5011269;28;20547;-70
2022/12/10 05:51:04;;;;;;;1999.90;999.90;;;0.20;99.90;;;;;;5010410;28;20543;-68
2022/12/10 05:53:31;;;;;;;1999.90;999.90;;;0.20;99.90;;;;;;5011881;28;20460;-70
2022/12/10 05:56:01;;;;;;;1999.90;999.90;;;0.20;99.90;;;;;;5008412;28;20972;-70
2022/12/10 05:58:28;;;;;;;1999.90;999.90;;;0.20;99.90;;;;;;5010001;28;20456;-71
2022/12/10 06:00:55;;;;;;;1999.90;999.90;;;0.20;99.90;;;;;;5009785;28;20467;-70
2022/12/10 06:03:24;;;;;;;1999.90;999.90;;;0.20;99.90;;;;;;5010847;28;21115;-72
2022/12/10 06:05:51;;;;;;;1999.90;999.90;;;0.10;99.90;;;;;;5008492;28;21014;-69
2022/12/10 06:08:18;;;;;;;1999.90;999.90;;;0.20;99.90;;;;;;5011235;28;20464;-70
2022/12/10 06:10:45;;;;;;;1999.90;999.90;;;0.10;99.90;;;;;;5009308;28;20471;-69
2022/12/10 06:13:12;;;;;;;1999.90;999.90;;;0.30;99.90;;;;;;5009662;28;20476;-70
2022/12/10 06:15:40;;;;;;;1999.90;999.90;;;0.20;99.90;;;;;;5008766;28;20823;-70
2022/12/10 06:18:07;;;;;;;1999.90;999.90;;;0.20;99.90;;;;;;5007966;28;20461;-69
2022/12/10 06:20:38;;;;;;;1999.90;999.90;;;0.20;99.90;;;;;;5010508;28;20471;-70
2022/12/10 06:23:05;;;;;;;1999.90;999.90;;;0.20;99.90;;;;;;5008209;28;20485;-69
2022/12/10 06:25:33;;;;;;;1999.90;999.90;;;0.20;99.90;;;;;;5008554;28;20464;-71
2022/12/10 06:27:59;;;;;;;1999.90;999.90;;;0.20;99.90;;;;;;5005532;28;20471;-75
2022/12/10 06:30:26;;;;;;;1999.90;999.90;;;0.50;99.90;;;;;;5004979;28;20460;-70
2022/12/10 06:32:53;;;;;;;1999.90;999.90;;;0.20;99.90;;;;;;5009210;28;20484;-70
2022/12/10 06:35:20;;;;;;;1999.90;999.90;;;0.20;99.90;;;;;;5009983;28;20467;-68
2022/12/10 06:37:49;;;;;;;1999.90;999.90;;;0.20;99.90;;;;;;5009416;28;20456;-70
2022/12/10 06:40:16;;;;;;;1999.90;999.90;;;0.20;99.90;;;;;;5008328;28;20464;-70
2022/12/10 06:42:43;;;;;;;1999.90;999.90;;;0.10;99.90;;;;;;5009823;28;20511;-69
2022/12/10 06:45:11;;;;;;;1999.90;999.90;;;0.10;99.90;;;;;;5007394;28;20469;-70
2022/12/10 06:47:38;;;;;;;1999.90;999.90;;;0.10;99.90;;;;;;5009419;28;20967;-70
2022/12/10 06:50:05;;;;;;;1999.90;999.90;;;0.10;99.90;;;;;;5008117;28;20465;-71
2022/12/10 06:52:32;;;;;;;1999.90;999.90;;;0.10;99.90;;;;;;5009800;28;20487;-72
2022/12/10 06:55:00;;;;;;;1999.90;999.90;;;0.20;99.90;;;;;;5006430;28;20856;-69
2022/12/10 06:57:27;;;;;;;1999.90;999.90;;;0.20;99.90;;;;;;5008989;28;20494;-69
2022/12/10 06:59:54;;;;;;;1999.90;999.90;;;0.30;99.90;;;;;;5009114;28;20464;-69
2022/12/10 07:02:21;;;;;;;1999.90;999.90;;;0.30;99.90;;;;;;5008967;28;20484;-70
2022/12/10 07:04:47;;;;;;;1999.90;999.90;;;0.20;99.90;;;;;;5008058;28;20460;-71
2022/12/10 07:07:14;;;;;;;1999.90;999.90;;;0.20;99.90;;;;;;5010259;28;20460;-70
2022/12/10 07:09:41;;;;;;;1999.90;999.90;;;0.20;99.90;;;;;;5006540;28;20482;-70
2022/12/10 07:12:09;;;;;;;1999.90;999.90;;;0.20;99.90;;;;;;5004985;28;20559;-68
2022/12/10 07:14:36;;;;;;;1999.90;999.90;;;0.20;99.90;;;;;;5006332;28;20474;-69
2022/12/10 07:17:05;;;;;;;1999.90;999.90;;;0.10;99.90;;;;;;5008169;28;20468;-70
2022/12/10 07:19:32;;;;;;;1999.90;999.90;;;0.20;99.90;;;;;;5009426;28;20492;-70
2022/12/10 07:21:58;;;;;;;1999.90;999.90;;;0.10;99.90;;;;;;5007739;28;20582;-70
2022/12/10 07:24:25;;;;;;;1999.90;999.90;;;0.10;99.90;;;;;;5004562;28;20471;-67
2022/12/10 07:26:52;;;;;;;1999.90;999.90;;;0.10;99.90;;;;;;5005470;28;20468;-68
2022/12/10 07:29:22;;;;;;;1999.90;999.90;;;0.10;99.90;;;;;;5010322;28;20463;-70
2022/12/10 07:31:49;;;;;;;1999.90;999.90;;;0.40;99.90;;;;;;5012573;28;20472;-70
2022/12/10 07:34:17;;;;;;;1999.90;999.90;;;0.10;99.90;;;;;;5012695;28;20451;-71
2022/12/10 07:36:44;;;;;;;1999.90;999.90;;;0.20;99.90;;;;;;5004819;28;20548;-70
2022/12/10 07:39:16;;;;;;;1999.90;999.90;;;0.10;99.90;;;;;;4994231;28;20453;-67
2022/12/10 07:41:44;;;;;;;1999.90;999.90;;;0.30;99.90;;;;;;4994016;28;21181;-70
2022/12/10 07:44:13;;;;;;;1999.90;999.90;;;0.10;99.90;;;;;;5004892;28;21083;-67
2022/12/10 07:46:41;;;;;;;1999.90;999.90;;;0.10;99.90;;;;;;5075957;22;20545;-67
2022/12/10 07:49:08;;;;;;;1999.90;999.90;;;0.10;99.90;;;;;;5061904;28;20461;-66
2022/12/10 07:51:35;;;;;;;1999.90;999.90;;;0.20;99.90;;;;;;5064140;28;20487;-66
2022/12/10 07:54:01;;;;;;;1999.90;999.90;;;0.20;99.90;;;;;;5067071;28;20493;-66
2022/12/10 07:56:28;;;;;;;1999.90;999.90;;;0.20;99.90;;;;;;5065153;28;21019;-66
2022/12/10 07:58:55;;;;;;;1999.90;999.90;;;0.20;99.90;;;;;;5067143;28;20475;-66
2022/12/10 08:01:25;;;;;;;1999.90;999.90;;;0.20;99.90;;;;;;5068674;28;20465;-66
2022/12/10 08:03:56;;;;;;;1999.90;999.90;;;0.30;99.90;;;;;;5061966;28;20481;-66
2022/12/10 08:06:23;;;;;;;1999.90;999.90;;;0.30;99.90;;;;;;5068894;28;20845;-67
2022/12/10 08:08:51;;;;;;;1999.90;999.90;;;0.30;99.90;;;;;;5073185;28;20461;-67
2022/12/10 08:11:20;;;;;;;1999.90;999.90;;;0.40;99.90;;;;;;5071495;28;20484;-67
2022/12/10 08:13:47;;;;;;;1999.90;999.90;;;0.50;99.90;;;;;;5064337;28;20458;-66
2022/12/10 08:16:16;;;;;;;1999.90;999.90;;;0.40;99.90;;;;;;5064519;28;20476;-67
2022/12/10 08:18:43;;;;;;;1999.90;999.90;;;0.40;99.90;;;;;;5072746;28;20491;-67
2022/12/10 08:21:13;;;;;;;1999.90;999.90;;;0.40;99.90;;;;;;5075107;28;20466;-67
2022/12/10 08:23:41;;;;;;;1999.90;999.90;;;0.40;99.90;;;;;;5072356;28;20480;-67
2022/12/10 08:26:10;;;;;;;1999.90;999.90;;;0.50;99.90;;;;;;5065650;28;20476;-67
2022/12/10 08:28:37;;;;;;;1999.90;999.90;;;0.50;99.90;;;;;;5075528;28;20448;-67
2022/12/10 08:31:05;;;;;;;1999.90;999.90;;;0.50;99.90;;;;;;5079184;28;20438;-67
2022/12/10 08:33:34;;;;;;;1999.90;999.90;;;0.60;99.90;;;;;;5077499;28;20480;-66
2022/12/10 08:36:02;;;;;;;1999.90;999.90;;;0.60;99.90;;;;;;5075579;28;20818;-67
2022/12/10 08:38:31;;;;;;;1999.90;999.90;;;0.70;99.90;;;;;;5067953;28;20454;-67
2022/12/10 08:40:58;;;;;;;1999.90;999.90;;;0.60;99.90;;;;;;5069293;28;20469;-67
2022/12/10 08:43:25;;;;;;;1999.90;999.90;;;0.60;99.90;;;;;;5070749;28;21019;-67
2022/12/10 08:45:52;;;;;;;1999.90;999.90;;;0.50;99.90;;;;;;5073975;28;20500;-67
2022/12/10 08:48:18;;;;;;;1999.90;999.90;;;0.50;99.90;;;;;;5073642;28;20453;-67
2022/12/10 08:50:46;;;;;;;1999.90;999.90;;;0.50;99.90;;;;;;5071230;28;20464;-67
2022/12/10 08:53:12;;;;;;;1999.90;999.90;;;0.60;99.90;;;;;;5066142;28;20449;-66
2022/12/10 08:55:41;;;;;;;1999.90;999.90;;;0.60;99.90;;;;;;5074567;28;20477;-68
2022/12/10 08:58:09;;;;;;;1999.90;999.90;;;0.70;99.90;;;;;;5077437;28;21099;-67
2022/12/10 09:00:36;;;;;;;1999.90;999.90;;;0.70;99.90;;;;;;5078659;28;20461;-67
2022/12/10 09:03:03;;;;;;;1999.90;999.90;;;0.70;99.90;;;;;;5078514;28;20489;-67
2022/12/10 09:05:30;;;;;;;1999.90;999.90;;;0.60;99.90;;;;;;5078476;28;20493;-66
2022/12/10 09:07:57;;;;;;;1999.90;999.90;;;0.60;99.90;;;;;;5066710;28;20469;-67
2022/12/10 09:10:24;;;;;;;1999.90;999.90;;;0.50;99.90;;;;;;5070799;28;20457;-67
2022/12/10 09:12:52;;;;;;;1999.90;999.90;;;0.50;99.90;;;;;;5074974;28;20980;-66
2022/12/10 09:15:19;;;;;;;1999.90;999.90;;;0.60;99.90;;;;;;5069639;28;20473;-67
2022/12/10 09:17:46;;;;;;;1999.90;999.90;;;0.50;99.90;;;;;;5070408;28;20453;-65
2022/12/10 09:20:13;;;;;;;1999.90;999.90;;;0.50;99.90;;;;;;5067206;28;20457;-68
2022/12/10 09:22:40;;;;;;;1999.90;999.90;;;0.50;99.90;;;;;;5064043;28;21204;-66
2022/12/10 09:25:09;;;;;;;1999.90;999.90;;;0.60;99.90;;;;;;5070182;28;20484;-67
2022/12/10 09:27:37;;;;;;;1999.90;999.90;;;0.70;99.90;;;;;;5067664;28;20461;-66
2022/12/10 09:30:06;;;;;;;1999.90;999.90;;;0.70;99.90;;;;;;5064435;28;20477;-66
2022/12/10 09:32:33;;;;;;;1999.90;999.90;;;0.60;99.90;;;;;;5072391;28;20469;-66
2022/12/10 09:35:00;;;;;;;1999.90;999.90;;;0.70;99.90;;;;;;5069424;28;20844;-67
2022/12/10 09:37:27;;;;;;;1999.90;999.90;;;0.60;99.90;;;;;;5070897;28;20457;-66
2022/12/10 09:39:54;;;;;;;1999.90;999.90;;;0.70;99.90;;;;;;5063845;28;20852;-66
2022/12/10 09:42:35;;;;;;;1999.90;999.90;;;0.60;99.90;;;;;;5059561;28;20465;-66
2022/12/10 09:45:09;;;;;;;1999.90;999.90;;;0.60;99.90;;;;;;5067840;28;20510;-66
2022/12/10 09:47:44;;;;;;;1999.90;999.90;;;0.50;99.90;;;;;;5071713;28;20456;-66
2022/12/10 09:50:19;;;;;;;1999.90;999.90;;;0.50;99.90;;;;;;5070027;28;20471;-67
2022/12/10 09:52:49;;;;;;;1999.90;999.90;;;0.50;99.90;;;;;;5071821;28;20453;-65
2022/12/10 09:55:20;;;;;;;1999.90;999.90;;;0.50;99.90;;;;;;5067415;28;20480;-67
2022/12/10 09:57:50;;;;;;;1999.90;999.90;;;0.50;99.90;;;;;;5067916;28;20457;-66
2022/12/10 10:00:22;;;;;;;1999.90;999.90;;;0.40;99.90;;;;;;5070082;28;20836;-66
2022/12/10 10:02:50;;;;;;;1999.90;999.90;;;0.40;99.90;;;;;;5070978;28;20499;-67
2022/12/10 10:05:22;;;;;;;1999.90;999.90;;;0.30;99.90;;;;;;5068239;28;20531;-66
2022/12/10 10:07:52;;;;;;;1999.90;999.90;;;0.30;99.90;;;;;;5068899;28;20962;-67
2022/12/10 10:10:24;;;;;;;1999.90;999.90;;;0.30;99.90;;;;;;5068285;28;20503;-66
2022/12/10 10:12:54;;;;;;;1999.90;999.90;;;0.30;99.90;;;;;;5067997;28;20621;-66
2022/12/10 10:15:26;;;;;;;1999.90;999.90;;;0.30;99.90;;;;;;5068519;28;20488;-66
2022/12/10 10:17:56;;;;;;;1999.90;999.90;;;0.50;99.90;;;;;;5070057;28;20453;-67
2022/12/10 10:20:23;;;;;;;1999.90;999.90;;;0.40;99.90;;;;;;5070247;28;20843;-66
2022/12/10 10:22:50;;;;;;;1999.90;999.90;;;0.50;99.90;;;;;;5064256;28;20482;-66
2022/12/10 10:25:19;;;;;;;1999.90;999.90;;;0.40;99.90;;;;;;5066423;28;21063;-67
2022/12/10 10:27:46;;;;;;;1999.90;999.90;;;0.50;99.90;;;;;;5069956;28;20465;-66
2022/12/10 10:30:17;;;;;;;1999.90;999.90;;;0.40;99.90;;;;;;5069970;28;20462;-66
2022/12/10 10:32:51;;;;;;;1999.90;999.90;;;0.30;99.90;;;;;;5071204;28;20459;-67
2022/12/10 10:35:30;;;;;;;1999.90;999.90;;;0.40;99.90;;;;;;5075343;28;20481;-66
2022/12/10 10:38:00;;;;;;;1999.90;999.90;;;0.40;99.90;;;;;;5075126;28;20833;-66
2022/12/10 10:40:29;;;;;;;1999.90;999.90;;;0.50;99.90;;;;;;5069075;28;20457;-66
2022/12/10 10:42:59;;;;;;;1999.90;999.90;;;0.60;99.90;;;;;;5068573;28;20481;-64
2022/12/10 10:45:39;;;;;;;1999.90;999.90;;;0.60;99.90;;;;;;5071660;28;20469;-66
2022/12/10 10:48:14;;;;;;;1999.90;999.90;;;0.60;99.90;;;;;;5071995;28;20857;-67
2022/12/10 10:50:44;;;;;;;1999.90;999.90;;;0.60;99.90;;;;;;5072886;28;20798;-66
2022/12/10 10:53:31;;;;;;;1999.90;999.90;;;0.60;99.90;;;;;;5072595;28;20446;-66
2022/12/10 10:56:06;;;;;;;1999.90;999.90;;;0.70;99.90;;;;;;5071551;28;21044;-67
2022/12/10 10:58:33;;;;;;;1999.90;999.90;;;0.80;99.90;;;;;;5072494;28;20436;-66
2022/12/10 11:01:02;;;;;;;1999.90;999.90;;;0.80;99.90;;;;;;5072215;28;20449;-67
2022/12/10 11:03:33;;;;;;;1999.90;999.90;;;0.70;99.90;;;;;;5070119;28;20485;-67
2022/12/10 11:06:00;;;;;;;1999.90;999.90;;;0.70;99.90;;;;;;5069776;28;20492;-67
2022/12/10 11:08:31;;;;;;;1999.90;999.90;;;0.60;99.90;;;;;;5072260;28;20441;-67
2022/12/10 11:11:03;;;;;;;1999.90;999.90;;;0.70;99.90;;;;;;5072297;28;20452;-66
2022/12/10 11:13:31;;;;;;;1999.90;999.90;;;0.60;99.90;;;;;;5072011;28;20437;-66
2022/12/10 11:16:02;;;;;;;1999.90;999.90;;;0.60;99.90;;;;;;5070063;28;20507;-66
2022/12/10 11:18:34;;;;;;;1999.90;999.90;;;0.80;99.90;;;;;;5072318;28;20445;-66
2022/12/10 11:21:05;;;;;;;1999.90;999.90;;;0.70;99.90;;;;;;5072173;28;20472;-66
2022/12/10 11:23:38;;;;;;;1999.90;999.90;;;0.70;99.90;;;;;;5072361;28;20477;-67
2022/12/10 11:26:20;;;;;;;1999.90;999.90;;;0.80;99.90;;;;;;5070942;28;20996;-67
2022/12/10 11:28:57;;;;;;;1999.90;999.90;;;0.70;99.90;;;;;;5070585;28;20440;-66
2022/12/10 11:31:39;;;;;;;1999.90;999.90;;;0.70;99.90;;;;;;5070902;28;21165;-66
2022/12/10 11:34:14;;;;;;;1999.90;999.90;;;0.70;99.90;;;;;;5071909;28;20449;-66
2022/12/10 11:36:50;;;;;;;1999.90;999.90;;;0.70;99.90;;;;;;5071027;28;20468;-66
2022/12/10 11:39:39;;;;;;;1999.90;999.90;;;0.80;99.90;;;;;;5072076;28;20432;-66
2022/12/10 11:42:11;;;;;;;1999.90;999.90;;;0.90;99.90;;;;;;5071919;28;20429;-65
2022/12/10 11:44:48;;;;;;;1999.90;999.90;;;0.90;99.90;;;;;;5071414;28;20472;-66
2022/12/10 11:47:38;;;;;;;1999.90;999.90;;;1.00;99.90;;;;;;5068505;28;20485;-67
2022/12/10 11:50:19;;;;;;;1999.90;999.90;;;1.00;99.90;;;;;;5059764;28;20492;-66
2022/12/10 11:52:58;;;;;;;1999.90;999.90;;;1.10;99.90;;;;;;5069768;28;20472;-66
2022/12/10 11:55:36;;;;;;;1999.90;999.90;;;1.00;99.90;;;;;;5067353;28;20636;-66
2022/12/10 11:58:18;;;;;;;1999.90;999.90;;;0.90;99.90;;;;;;5063017;28;20457;-66
2022/12/10 12:00:53;;;;;;;1999.90;999.90;;;0.90;99.90;;;;;;5062283;28;20458;-66
2022/12/10 12:03:46;;;;;;;1999.90;999.90;;;0.80;99.90;;;;;;5065520;28;20469;-66
2022/12/10 12:06:34;;;;;;;1999.90;999.90;;;0.90;99.90;;;;;;5062409;28;20485;-67
2022/12/10 12:09:08;;;;;;;1999.90;999.90;;;0.80;99.90;;;;;;5064130;28;20548;-65
2022/12/10 12:11:53;;;;;;;1999.90;999.90;;;0.90;99.90;;;;;;5066269;28;20509;-67
2022/12/10 12:14:24;;;;;;;1999.90;999.90;;;0.90;99.90;;;;;;5063189;28;20453;-66
2022/12/10 12:17:00;;;;;;;1999.90;999.90;;;0.80;99.90;;;;;;5067227;28;20534;-67
2022/12/10 12:19:34;;;;;;;1999.90;999.90;;;0.80;99.90;;;;;;5065721;28;20464;-67
2022/12/10 12:22:07;;;;;;;1999.90;999.90;;;0.80;99.90;;;;;;5067601;28;20466;-67
2022/12/10 12:24:38;;;;;;;1999.90;999.90;;;0.70;99.90;;;;;;5066904;28;20472;-66
2022/12/10 12:27:13;;;;;;;1999.90;999.90;;;0.70;99.90;;;;;;5067569;28;20477;-67
2022/12/10 12:29:45;;;;;;;1999.90;999.90;;;0.70;99.90;;;;;;5064004;28;20475;-66